sensor_id;sensor_type;location;lat;lon;timestamp;P1;durP1;ratioP1;P2;durP2;ratioP2
52948;SDS011;38812;50.942;3.644;2022-12-16T00:01:25;123.97;;;55.97;;
52948;SDS011;38812;50.942;3.644;2022-12-16T00:03:52;110.68;;;54.20;;
52948;SDS011;38812;50.942;3.644;2022-12-16T00:06:20;106.38;;;53.13;;
52948;SDS011;38812;50.942;3.644;2022-12-16T00:08:46;112.30;;;53.47;;
52948;SDS011;38812;50.942;3.644;2022-12-16T00:11:12;112.00;;;51.15;;
52948;SDS011;38812;50.942;3.644;2022-12-16T00:13:38;102.55;;;51.05;;
52948;SDS011;38812;50.942;3.644;2022-12-16T00:16:10;113.32;;;52.70;;
52948;SDS011;38812;50.942;3.644;2022-12-16T00:18:38;113.50;;;50.20;;
52948;SDS011;38812;50.942;3.644;2022-12-16T00:21:03;115.50;;;49.50;;
52948;SDS011;38812;50.942;3.644;2022-12-16T00:23:29;91.07;;;46.25;;
52948;SDS011;38812;50.942;3.644;2022-12-16T00:25:55;106.00;;;46.85;;
52948;SDS011;38812;50.942;3.644;2022-12-16T00:28:21;94.75;;;45.40;;
52948;SDS011;38812;50.942;3.644;2022-12-16T00:30:47;104.28;;;45.75;;
52948;SDS011;38812;50.942;3.644;2022-12-16T00:33:13;90.90;;;45.10;;
52948;SDS011;38812;50.942;3.644;2022-12-16T00:35:39;103.03;;;43.90;;
52948;SDS011;38812;50.942;3.644;2022-12-16T00:38:04;102.18;;;46.92;;
52948;SDS011;38812;50.942;3.644;2022-12-16T00:40:29;94.82;;;45.80;;
52948;SDS011;38812;50.942;3.644;2022-12-16T00:42:55;97.57;;;45.25;;
52948;SDS011;38812;50.942;3.644;2022-12-16T00:45:20;95.95;;;43.92;;
52948;SDS011;38812;50.942;3.644;2022-12-16T00:47:47;105.50;;;46.33;;
52948;SDS011;38812;50.942;3.644;2022-12-16T00:50:14;98.28;;;47.15;;
52948;SDS011;38812;50.942;3.644;2022-12-16T00:52:39;101.78;;;46.97;;
52948;SDS011;38812;50.942;3.644;2022-12-16T00:55:05;99.68;;;47.67;;
52948;SDS011;38812;50.942;3.644;2022-12-16T00:57:32;99.53;;;48.47;;
52948;SDS011;38812;50.942;3.644;2022-12-16T00:59:57;127.30;;;51.33;;
52948;SDS011;38812;50.942;3.644;2022-12-16T01:02:23;101.55;;;47.88;;
52948;SDS011;38812;50.942;3.644;2022-12-16T01:04:48;97.80;;;44.97;;
52948;SDS011;38812;50.942;3.644;2022-12-16T01:07:13;105.70;;;50.92;;
52948;SDS011;38812;50.942;3.644;2022-12-16T01:09:39;99.75;;;46.63;;
52948;SDS011;38812;50.942;3.644;2022-12-16T01:12:04;101.82;;;43.95;;
52948;SDS011;38812;50.942;3.644;2022-12-16T01:14:30;103.70;;;42.00;;
52948;SDS011;38812;50.942;3.644;2022-12-16T01:16:55;103.63;;;46.95;;
52948;SDS011;38812;50.942;3.644;2022-12-16T01:19:21;101.63;;;45.85;;
52948;SDS011;38812;50.942;3.644;2022-12-16T01:21:46;99.82;;;46.20;;
52948;SDS011;38812;50.942;3.644;2022-12-16T01:24:12;95.45;;;46.55;;
52948;SDS011;38812;50.942;3.644;2022-12-16T01:26:37;112.05;;;46.67;;
52948;SDS011;38812;50.942;3.644;2022-12-16T01:29:03;119.72;;;46.25;;
52948;SDS011;38812;50.942;3.644;2022-12-16T01:31:29;172.68;;;49.60;;
52948;SDS011;38812;50.942;3.644;2022-12-16T01:33:54;144.05;;;51.05;;
52948;SDS011;38812;50.942;3.644;2022-12-16T01:36:19;151.80;;;51.25;;
52948;SDS011;38812;50.942;3.644;2022-12-16T01:38:45;127.90;;;48.38;;
52948;SDS011;38812;50.942;3.644;2022-12-16T01:41:11;165.93;;;51.10;;
52948;SDS011;38812;50.942;3.644;2022-12-16T01:43:39;132.63;;;45.15;;
52948;SDS011;38812;50.942;3.644;2022-12-16T01:46:12;147.45;;;47.05;;
52948;SDS011;38812;50.942;3.644;2022-12-16T01:48:53;138.13;;;48.33;;
52948;SDS011;38812;50.942;3.644;2022-12-16T01:51:24;126.35;;;45.38;;
52948;SDS011;38812;50.942;3.644;2022-12-16T01:53:55;129.57;;;51.15;;
52948;SDS011;38812;50.942;3.644;2022-12-16T01:56:26;163.63;;;48.75;;
52948;SDS011;38812;50.942;3.644;2022-12-16T01:58:54;186.25;;;50.10;;
52948;SDS011;38812;50.942;3.644;2022-12-16T02:01:19;153.25;;;48.08;;
52948;SDS011;38812;50.942;3.644;2022-12-16T02:03:45;119.40;;;45.65;;
52948;SDS011;38812;50.942;3.644;2022-12-16T02:06:13;121.95;;;52.20;;
52948;SDS011;38812;50.942;3.644;2022-12-16T02:08:38;105.10;;;44.05;;
52948;SDS011;38812;50.942;3.644;2022-12-16T02:16:58;89.57;;;42.70;;
52948;SDS011;38812;50.942;3.644;2022-12-16T02:36:16;86.32;;;38.38;;
52948;SDS011;38812;50.942;3.644;2022-12-16T02:41:15;88.90;;;40.53;;
52948;SDS011;38812;50.942;3.644;2022-12-16T02:43:52;100.40;;;39.75;;
52948;SDS011;38812;50.942;3.644;2022-12-16T02:46:19;97.80;;;40.03;;
52948;SDS011;38812;50.942;3.644;2022-12-16T02:48:49;111.10;;;42.50;;
52948;SDS011;38812;50.942;3.644;2022-12-16T02:51:15;101.15;;;43.97;;
52948;SDS011;38812;50.942;3.644;2022-12-16T02:53:41;94.47;;;41.03;;
52948;SDS011;38812;50.942;3.644;2022-12-16T03:06:55;100.93;;;40.58;;
52948;SDS011;38812;50.942;3.644;2022-12-16T03:09:24;94.78;;;38.60;;
52948;SDS011;38812;50.942;3.644;2022-12-16T03:11:53;93.57;;;39.88;;
52948;SDS011;38812;50.942;3.644;2022-12-16T03:14:21;84.20;;;37.55;;
52948;SDS011;38812;50.942;3.644;2022-12-16T03:16:49;95.32;;;39.65;;
52948;SDS011;38812;50.942;3.644;2022-12-16T03:19:15;103.88;;;39.40;;
52948;SDS011;38812;50.942;3.644;2022-12-16T03:21:45;105.18;;;40.00;;
52948;SDS011;38812;50.942;3.644;2022-12-16T03:24:18;106.45;;;38.30;;
52948;SDS011;38812;50.942;3.644;2022-12-16T03:29:21;99.53;;;38.92;;
52948;SDS011;38812;50.942;3.644;2022-12-16T03:31:58;100.75;;;37.80;;
52948;SDS011;38812;50.942;3.644;2022-12-16T03:34:32;80.35;;;36.05;;
52948;SDS011;38812;50.942;3.644;2022-12-16T03:37:06;91.00;;;36.35;;
52948;SDS011;38812;50.942;3.644;2022-12-16T03:39:34;90.57;;;36.78;;
52948;SDS011;38812;50.942;3.644;2022-12-16T03:42:03;90.53;;;37.15;;
52948;SDS011;38812;50.942;3.644;2022-12-16T03:44:30;89.05;;;35.38;;
52948;SDS011;38812;50.942;3.644;2022-12-16T03:46:57;83.28;;;35.78;;
52948;SDS011;38812;50.942;3.644;2022-12-16T03:49:22;82.22;;;35.10;;
52948;SDS011;38812;50.942;3.644;2022-12-16T03:51:48;81.47;;;36.13;;
52948;SDS011;38812;50.942;3.644;2022-12-16T03:54:13;84.30;;;36.55;;
52948;SDS011;38812;50.942;3.644;2022-12-16T03:56:39;83.07;;;35.28;;
52948;SDS011;38812;50.942;3.644;2022-12-16T03:59:04;88.50;;;36.80;;
52948;SDS011;38812;50.942;3.644;2022-12-16T04:01:29;78.43;;;35.50;;
52948;SDS011;38812;50.942;3.644;2022-12-16T04:03:55;85.90;;;34.03;;
52948;SDS011;38812;50.942;3.644;2022-12-16T04:06:20;86.82;;;35.53;;
52948;SDS011;38812;50.942;3.644;2022-12-16T04:08:46;81.95;;;33.25;;
52948;SDS011;38812;50.942;3.644;2022-12-16T04:11:12;85.72;;;34.03;;
52948;SDS011;38812;50.942;3.644;2022-12-16T04:13:57;88.78;;;31.80;;
52948;SDS011;38812;50.942;3.644;2022-12-16T04:16:41;66.38;;;33.28;;
52948;SDS011;38812;50.942;3.644;2022-12-16T04:19:27;78.03;;;35.30;;
52948;SDS011;38812;50.942;3.644;2022-12-16T04:22:57;73.28;;;34.10;;
52948;SDS011;38812;50.942;3.644;2022-12-16T04:25:26;79.35;;;36.63;;
52948;SDS011;38812;50.942;3.644;2022-12-16T04:27:55;82.82;;;33.92;;
52948;SDS011;38812;50.942;3.644;2022-12-16T04:30:22;65.75;;;32.22;;
52948;SDS011;38812;50.942;3.644;2022-12-16T04:32:55;76.15;;;33.75;;
52948;SDS011;38812;50.942;3.644;2022-12-16T04:35:42;67.32;;;32.40;;
52948;SDS011;38812;50.942;3.644;2022-12-16T04:38:26;74.78;;;33.88;;
52948;SDS011;38812;50.942;3.644;2022-12-16T04:41:10;83.50;;;36.65;;
52948;SDS011;38812;50.942;3.644;2022-12-16T04:43:54;83.32;;;34.15;;
52948;SDS011;38812;50.942;3.644;2022-12-16T04:46:38;79.18;;;34.72;;
52948;SDS011;38812;50.942;3.644;2022-12-16T04:49:22;94.57;;;36.40;;
52948;SDS011;38812;50.942;3.644;2022-12-16T04:52:06;88.97;;;36.20;;
52948;SDS011;38812;50.942;3.644;2022-12-16T04:54:50;67.85;;;33.33;;
52948;SDS011;38812;50.942;3.644;2022-12-16T04:57:34;71.82;;;34.75;;
52948;SDS011;38812;50.942;3.644;2022-12-16T05:00:18;79.25;;;34.05;;
52948;SDS011;38812;50.942;3.644;2022-12-16T05:03:01;77.43;;;35.22;;
52948;SDS011;38812;50.942;3.644;2022-12-16T05:05:45;80.35;;;36.85;;
52948;SDS011;38812;50.942;3.644;2022-12-16T05:08:29;88.20;;;39.30;;
52948;SDS011;38812;50.942;3.644;2022-12-16T05:11:13;79.85;;;37.05;;
52948;SDS011;38812;50.942;3.644;2022-12-16T05:13:57;74.88;;;33.05;;
52948;SDS011;38812;50.942;3.644;2022-12-16T05:16:41;87.50;;;39.28;;
52948;SDS011;38812;50.942;3.644;2022-12-16T05:19:25;74.70;;;34.88;;
52948;SDS011;38812;50.942;3.644;2022-12-16T05:22:09;78.32;;;32.92;;
52948;SDS011;38812;50.942;3.644;2022-12-16T05:24:53;62.40;;;30.55;;
52948;SDS011;38812;50.942;3.644;2022-12-16T05:27:37;79.22;;;32.85;;
52948;SDS011;38812;50.942;3.644;2022-12-16T05:30:21;79.40;;;35.33;;
52948;SDS011;38812;50.942;3.644;2022-12-16T05:33:05;61.65;;;32.75;;
52948;SDS011;38812;50.942;3.644;2022-12-16T05:35:49;77.00;;;35.97;;
52948;SDS011;38812;50.942;3.644;2022-12-16T05:38:33;79.68;;;36.70;;
52948;SDS011;38812;50.942;3.644;2022-12-16T05:41:17;71.53;;;34.42;;
52948;SDS011;38812;50.942;3.644;2022-12-16T05:44:00;69.25;;;30.60;;
52948;SDS011;38812;50.942;3.644;2022-12-16T05:46:44;69.53;;;32.20;;
52948;SDS011;38812;50.942;3.644;2022-12-16T05:49:28;66.28;;;31.55;;
52948;SDS011;38812;50.942;3.644;2022-12-16T05:52:12;77.78;;;33.10;;
52948;SDS011;38812;50.942;3.644;2022-12-16T05:54:56;88.63;;;36.70;;
52948;SDS011;38812;50.942;3.644;2022-12-16T05:57:40;84.80;;;37.88;;
52948;SDS011;38812;50.942;3.644;2022-12-16T06:00:24;71.38;;;33.05;;
52948;SDS011;38812;50.942;3.644;2022-12-16T06:03:08;75.78;;;31.20;;
52948;SDS011;38812;50.942;3.644;2022-12-16T06:05:52;72.22;;;32.08;;
52948;SDS011;38812;50.942;3.644;2022-12-16T06:08:36;82.05;;;35.53;;
52948;SDS011;38812;50.942;3.644;2022-12-16T06:11:20;82.65;;;32.15;;
52948;SDS011;38812;50.942;3.644;2022-12-16T06:14:04;67.63;;;32.60;;
52948;SDS011;38812;50.942;3.644;2022-12-16T06:16:47;70.65;;;32.50;;
52948;SDS011;38812;50.942;3.644;2022-12-16T06:19:31;64.57;;;29.80;;
52948;SDS011;38812;50.942;3.644;2022-12-16T06:22:15;65.22;;;31.33;;
52948;SDS011;38812;50.942;3.644;2022-12-16T06:24:59;75.18;;;32.58;;
52948;SDS011;38812;50.942;3.644;2022-12-16T06:27:47;74.65;;;34.42;;
52948;SDS011;38812;50.942;3.644;2022-12-16T06:30:34;78.70;;;33.80;;
52948;SDS011;38812;50.942;3.644;2022-12-16T06:33:18;57.63;;;29.38;;
52948;SDS011;38812;50.942;3.644;2022-12-16T06:36:02;75.35;;;33.63;;
52948;SDS011;38812;50.942;3.644;2022-12-16T06:38:47;73.25;;;34.58;;
52948;SDS011;38812;50.942;3.644;2022-12-16T06:41:31;82.55;;;34.53;;
52948;SDS011;38812;50.942;3.644;2022-12-16T06:44:15;74.95;;;32.53;;
52948;SDS011;38812;50.942;3.644;2022-12-16T06:46:58;87.85;;;32.20;;
52948;SDS011;38812;50.942;3.644;2022-12-16T06:49:50;87.82;;;34.63;;
52948;SDS011;38812;50.942;3.644;2022-12-16T06:52:34;78.72;;;33.78;;
52948;SDS011;38812;50.942;3.644;2022-12-16T06:55:18;83.28;;;33.35;;
52948;SDS011;38812;50.942;3.644;2022-12-16T06:58:02;82.30;;;33.67;;
52948;SDS011;38812;50.942;3.644;2022-12-16T07:00:46;90.82;;;34.88;;
52948;SDS011;38812;50.942;3.644;2022-12-16T07:03:30;74.82;;;35.90;;
52948;SDS011;38812;50.942;3.644;2022-12-16T07:06:15;80.60;;;34.75;;
52948;SDS011;38812;50.942;3.644;2022-12-16T07:08:59;82.57;;;34.78;;
52948;SDS011;38812;50.942;3.644;2022-12-16T07:11:43;77.60;;;32.47;;
52948;SDS011;38812;50.942;3.644;2022-12-16T07:14:27;74.40;;;32.47;;
52948;SDS011;38812;50.942;3.644;2022-12-16T07:17:10;79.28;;;32.72;;
52948;SDS011;38812;50.942;3.644;2022-12-16T07:19:54;66.13;;;30.67;;
52948;SDS011;38812;50.942;3.644;2022-12-16T07:22:42;77.55;;;31.50;;
52948;SDS011;38812;50.942;3.644;2022-12-16T07:25:27;78.10;;;32.15;;
52948;SDS011;38812;50.942;3.644;2022-12-16T07:28:11;83.07;;;35.42;;
52948;SDS011;38812;50.942;3.644;2022-12-16T07:30:55;85.07;;;35.63;;
52948;SDS011;38812;50.942;3.644;2022-12-16T07:33:39;93.18;;;37.85;;
52948;SDS011;38812;50.942;3.644;2022-12-16T07:36:23;85.22;;;36.30;;
52948;SDS011;38812;50.942;3.644;2022-12-16T07:39:07;90.78;;;36.80;;
52948;SDS011;38812;50.942;3.644;2022-12-16T07:41:50;96.00;;;35.85;;
52948;SDS011;38812;50.942;3.644;2022-12-16T07:44:34;80.18;;;34.65;;
52948;SDS011;38812;50.942;3.644;2022-12-16T07:47:18;72.47;;;33.95;;
52948;SDS011;38812;50.942;3.644;2022-12-16T07:50:02;83.88;;;35.47;;
52948;SDS011;38812;50.942;3.644;2022-12-16T07:52:52;90.32;;;37.25;;
52948;SDS011;38812;50.942;3.644;2022-12-16T07:55:37;86.93;;;35.38;;
52948;SDS011;38812;50.942;3.644;2022-12-16T07:58:21;84.05;;;35.25;;
52948;SDS011;38812;50.942;3.644;2022-12-16T08:01:05;87.78;;;36.80;;
52948;SDS011;38812;50.942;3.644;2022-12-16T08:03:49;89.30;;;37.10;;
52948;SDS011;38812;50.942;3.644;2022-12-16T08:06:33;93.22;;;35.05;;
52948;SDS011;38812;50.942;3.644;2022-12-16T08:09:17;102.13;;;37.38;;
52948;SDS011;38812;50.942;3.644;2022-12-16T08:12:01;103.85;;;40.95;;
52948;SDS011;38812;50.942;3.644;2022-12-16T08:14:45;87.82;;;37.88;;
52948;SDS011;38812;50.942;3.644;2022-12-16T08:17:29;106.20;;;43.53;;
52948;SDS011;38812;50.942;3.644;2022-12-16T08:20:13;108.75;;;40.88;;
52948;SDS011;38812;50.942;3.644;2022-12-16T08:22:57;106.40;;;43.38;;
52948;SDS011;38812;50.942;3.644;2022-12-16T08:25:41;105.00;;;45.83;;
52948;SDS011;38812;50.942;3.644;2022-12-16T08:28:25;116.85;;;47.60;;
52948;SDS011;38812;50.942;3.644;2022-12-16T08:31:09;107.18;;;41.30;;
52948;SDS011;38812;50.942;3.644;2022-12-16T08:33:53;91.95;;;41.70;;
52948;SDS011;38812;50.942;3.644;2022-12-16T08:36:36;95.05;;;43.50;;
52948;SDS011;38812;50.942;3.644;2022-12-16T08:39:21;105.78;;;44.15;;
52948;SDS011;38812;50.942;3.644;2022-12-16T08:42:04;88.43;;;41.42;;
52948;SDS011;38812;50.942;3.644;2022-12-16T08:44:48;77.63;;;35.00;;
52948;SDS011;38812;50.942;3.644;2022-12-16T08:47:32;73.10;;;35.97;;
52948;SDS011;38812;50.942;3.644;2022-12-16T08:50:16;72.10;;;36.95;;
52948;SDS011;38812;50.942;3.644;2022-12-16T08:53:00;73.70;;;35.45;;
52948;SDS011;38812;50.942;3.644;2022-12-16T08:55:44;83.90;;;34.38;;
52948;SDS011;38812;50.942;3.644;2022-12-16T08:58:28;69.65;;;34.85;;
52948;SDS011;38812;50.942;3.644;2022-12-16T09:01:12;77.78;;;36.72;;
52948;SDS011;38812;50.942;3.644;2022-12-16T09:03:56;72.22;;;34.50;;
52948;SDS011;38812;50.942;3.644;2022-12-16T09:06:40;76.60;;;36.78;;
52948;SDS011;38812;50.942;3.644;2022-12-16T09:09:23;83.18;;;36.55;;
52948;SDS011;38812;50.942;3.644;2022-12-16T09:12:07;80.07;;;36.60;;
52948;SDS011;38812;50.942;3.644;2022-12-16T09:14:51;67.38;;;33.75;;
52948;SDS011;38812;50.942;3.644;2022-12-16T09:17:35;72.25;;;34.72;;
52948;SDS011;38812;50.942;3.644;2022-12-16T09:20:19;86.28;;;33.88;;
52948;SDS011;38812;50.942;3.644;2022-12-16T09:23:03;82.07;;;38.92;;
52948;SDS011;38812;50.942;3.644;2022-12-16T09:25:48;83.07;;;40.00;;
52948;SDS011;38812;50.942;3.644;2022-12-16T09:28:32;86.13;;;38.88;;
52948;SDS011;38812;50.942;3.644;2022-12-16T09:31:16;81.40;;;38.05;;
52948;SDS011;38812;50.942;3.644;2022-12-16T09:33:59;79.70;;;39.05;;
52948;SDS011;38812;50.942;3.644;2022-12-16T09:36:43;77.85;;;37.97;;
52948;SDS011;38812;50.942;3.644;2022-12-16T09:39:27;82.72;;;40.10;;
52948;SDS011;38812;50.942;3.644;2022-12-16T09:42:27;80.53;;;39.90;;
52948;SDS011;38812;50.942;3.644;2022-12-16T09:51:58;72.38;;;36.67;;
52948;SDS011;38812;50.942;3.644;2022-12-16T09:54:45;88.22;;;41.75;;
52948;SDS011;38812;50.942;3.644;2022-12-16T09:57:30;91.50;;;41.72;;
52948;SDS011;38812;50.942;3.644;2022-12-16T10:00:21;97.53;;;40.20;;
52948;SDS011;38812;50.942;3.644;2022-12-16T10:03:23;80.78;;;41.55;;
52948;SDS011;38812;50.942;3.644;2022-12-16T10:21:28;82.10;;;38.45;;
52948;SDS011;38812;50.942;3.644;2022-12-16T10:27:43;63.30;;;30.35;;
52948;SDS011;38812;50.942;3.644;2022-12-16T10:30:29;59.70;;;29.85;;
52948;SDS011;38812;50.942;3.644;2022-12-16T10:33:14;60.88;;;34.13;;
52948;SDS011;38812;50.942;3.644;2022-12-16T10:35:58;66.05;;;35.28;;
52948;SDS011;38812;50.942;3.644;2022-12-16T10:38:44;65.28;;;29.23;;
52948;SDS011;38812;50.942;3.644;2022-12-16T10:41:33;59.55;;;28.73;;
52948;SDS011;38812;50.942;3.644;2022-12-16T10:47:30;44.05;;;20.92;;
52948;SDS011;38812;50.942;3.644;2022-12-16T10:50:14;65.40;;;23.23;;
52948;SDS011;38812;50.942;3.644;2022-12-16T10:53:02;38.20;;;18.80;;
52948;SDS011;38812;50.942;3.644;2022-12-16T10:55:58;34.78;;;17.05;;
52948;SDS011;38812;50.942;3.644;2022-12-16T10:59:03;51.28;;;21.08;;
52948;SDS011;38812;50.942;3.644;2022-12-16T11:01:55;34.60;;;17.00;;
52948;SDS011;38812;50.942;3.644;2022-12-16T11:04:44;33.35;;;15.15;;
52948;SDS011;38812;50.942;3.644;2022-12-16T11:07:33;34.88;;;15.35;;
52948;SDS011;38812;50.942;3.644;2022-12-16T11:10:31;34.13;;;16.70;;
52948;SDS011;38812;50.942;3.644;2022-12-16T11:13:20;33.13;;;15.10;;
52948;SDS011;38812;50.942;3.644;2022-12-16T11:16:19;33.70;;;14.63;;
52948;SDS011;38812;50.942;3.644;2022-12-16T11:19:20;29.38;;;13.27;;
52948;SDS011;38812;50.942;3.644;2022-12-16T11:22:16;19.65;;;11.50;;
52948;SDS011;38812;50.942;3.644;2022-12-16T11:25:03;22.23;;;9.45;;
52948;SDS011;38812;50.942;3.644;2022-12-16T11:28:10;25.98;;;11.15;;
52948;SDS011;38812;50.942;3.644;2022-12-16T11:30:57;27.65;;;10.52;;
52948;SDS011;38812;50.942;3.644;2022-12-16T11:33:44;17.52;;;9.68;;
52948;SDS011;38812;50.942;3.644;2022-12-16T11:36:29;26.98;;;9.30;;
52948;SDS011;38812;50.942;3.644;2022-12-16T11:39:16;24.05;;;8.40;;
52948;SDS011;38812;50.942;3.644;2022-12-16T11:42:02;23.27;;;9.32;;
52948;SDS011;38812;50.942;3.644;2022-12-16T11:44:51;39.60;;;12.35;;
52948;SDS011;38812;50.942;3.644;2022-12-16T11:47:39;17.73;;;8.15;;
52948;SDS011;38812;50.942;3.644;2022-12-16T11:50:28;15.45;;;5.80;;
52948;SDS011;38812;50.942;3.644;2022-12-16T11:56:24;12.73;;;6.60;;
52948;SDS011;38812;50.942;3.644;2022-12-16T11:59:31;18.00;;;6.70;;
52948;SDS011;38812;50.942;3.644;2022-12-16T12:02:21;10.95;;;5.20;;
52948;SDS011;38812;50.942;3.644;2022-12-16T12:05:10;16.27;;;6.72;;
52948;SDS011;38812;50.942;3.644;2022-12-16T12:08:00;14.35;;;6.55;;
52948;SDS011;38812;50.942;3.644;2022-12-16T12:13:39;20.60;;;6.22;;
52948;SDS011;38812;50.942;3.644;2022-12-16T12:23:02;12.07;;;5.78;;
52948;SDS011;38812;50.942;3.644;2022-12-16T12:26:05;16.70;;;6.93;;
52948;SDS011;38812;50.942;3.644;2022-12-16T12:35:20;16.25;;;6.15;;
52948;SDS011;38812;50.942;3.644;2022-12-16T12:38:08;19.02;;;5.70;;
52948;SDS011;38812;50.942;3.644;2022-12-16T12:41:05;12.90;;;4.82;;
52948;SDS011;38812;50.942;3.644;2022-12-16T12:47:15;15.60;;;5.82;;
52948;SDS011;38812;50.942;3.644;2022-12-16T12:50:12;12.77;;;5.63;;
52948;SDS011;38812;50.942;3.644;2022-12-16T12:54:04;21.45;;;5.38;;
52948;SDS011;38812;50.942;3.644;2022-12-16T12:59:24;14.65;;;4.63;;
52948;SDS011;38812;50.942;3.644;2022-12-16T13:02:18;12.32;;;6.63;;
52948;SDS011;38812;50.942;3.644;2022-12-16T13:05:05;9.65;;;5.13;;
52948;SDS011;38812;50.942;3.644;2022-12-16T13:08:29;13.10;;;4.55;;
52948;SDS011;38812;50.942;3.644;2022-12-16T13:11:16;14.52;;;4.93;;
52948;SDS011;38812;50.942;3.644;2022-12-16T13:14:00;15.25;;;6.47;;
52948;SDS011;38812;50.942;3.644;2022-12-16T13:22:31;9.57;;;4.32;;
52948;SDS011;38812;50.942;3.644;2022-12-16T13:28:22;7.38;;;2.72;;
52948;SDS011;38812;50.942;3.644;2022-12-16T13:31:09;7.03;;;1.70;;
52948;SDS011;38812;50.942;3.644;2022-12-16T13:33:54;6.22;;;1.90;;
52948;SDS011;38812;50.942;3.644;2022-12-16T13:36:51;8.65;;;2.47;;
52948;SDS011;38812;50.942;3.644;2022-12-16T13:39:40;9.93;;;2.58;;
52948;SDS011;38812;50.942;3.644;2022-12-16T13:48:47;16.02;;;4.53;;
52948;SDS011;38812;50.942;3.644;2022-12-16T13:54:19;8.93;;;3.70;;
52948;SDS011;38812;50.942;3.644;2022-12-16T13:57:15;11.82;;;3.80;;
52948;SDS011;38812;50.942;3.644;2022-12-16T14:00:02;10.25;;;3.53;;
52948;SDS011;38812;50.942;3.644;2022-12-16T14:02:49;12.10;;;2.35;;
52948;SDS011;38812;50.942;3.644;2022-12-16T14:05:35;2.75;;;1.85;;
52948;SDS011;38812;50.942;3.644;2022-12-16T14:08:24;8.88;;;2.80;;
52948;SDS011;38812;50.942;3.644;2022-12-16T14:11:15;4.55;;;2.40;;
52948;SDS011;38812;50.942;3.644;2022-12-16T14:14:10;7.88;;;2.80;;
52948;SDS011;38812;50.942;3.644;2022-12-16T14:17:03;13.60;;;4.72;;
52948;SDS011;38812;50.942;3.644;2022-12-16T14:19:56;13.18;;;4.60;;
52948;SDS011;38812;50.942;3.644;2022-12-16T14:25:29;17.10;;;5.93;;
52948;SDS011;38812;50.942;3.644;2022-12-16T14:31:57;16.15;;;4.80;;
52948;SDS011;38812;50.942;3.644;2022-12-16T14:34:24;14.43;;;4.93;;
52948;SDS011;38812;50.942;3.644;2022-12-16T14:39:58;18.20;;;5.57;;
52948;SDS011;38812;50.942;3.644;2022-12-16T14:42:43;14.32;;;5.38;;
52948;SDS011;38812;50.942;3.644;2022-12-16T14:45:36;17.00;;;5.00;;
52948;SDS011;38812;50.942;3.644;2022-12-16T14:48:54;11.73;;;4.55;;
52948;SDS011;38812;50.942;3.644;2022-12-16T14:51:33;20.83;;;6.13;;
52948;SDS011;38812;50.942;3.644;2022-12-16T14:57:12;14.32;;;5.15;;
52948;SDS011;38812;50.942;3.644;2022-12-16T15:03:05;24.00;;;6.72;;
52948;SDS011;38812;50.942;3.644;2022-12-16T15:06:18;17.05;;;6.93;;
52948;SDS011;38812;50.942;3.644;2022-12-16T15:09:07;26.10;;;7.13;;
52948;SDS011;38812;50.942;3.644;2022-12-16T15:12:00;20.40;;;6.97;;
52948;SDS011;38812;50.942;3.644;2022-12-16T15:14:46;18.48;;;6.38;;
52948;SDS011;38812;50.942;3.644;2022-12-16T15:20:35;16.15;;;7.28;;
52948;SDS011;38812;50.942;3.644;2022-12-16T15:26:19;16.33;;;6.43;;
52948;SDS011;38812;50.942;3.644;2022-12-16T15:29:22;18.67;;;7.80;;
52948;SDS011;38812;50.942;3.644;2022-12-16T15:32:33;19.08;;;7.25;;
52948;SDS011;38812;50.942;3.644;2022-12-16T15:40:58;35.35;;;15.52;;
52948;SDS011;38812;50.942;3.644;2022-12-16T15:43:44;80.13;;;31.88;;
52948;SDS011;38812;50.942;3.644;2022-12-16T15:46:29;61.85;;;27.48;;
52948;SDS011;38812;50.942;3.644;2022-12-16T15:49:21;32.15;;;13.25;;
52948;SDS011;38812;50.942;3.644;2022-12-16T15:58:18;34.60;;;15.63;;
52948;SDS011;38812;50.942;3.644;2022-12-16T16:01:02;36.35;;;15.93;;
52948;SDS011;38812;50.942;3.644;2022-12-16T16:03:49;32.97;;;14.38;;
52948;SDS011;38812;50.942;3.644;2022-12-16T16:06:35;31.65;;;12.43;;
52948;SDS011;38812;50.942;3.644;2022-12-16T16:09:21;28.77;;;12.45;;
52948;SDS011;38812;50.942;3.644;2022-12-16T16:12:08;26.63;;;13.50;;
52948;SDS011;38812;50.942;3.644;2022-12-16T16:14:52;31.42;;;14.40;;
52948;SDS011;38812;50.942;3.644;2022-12-16T16:17:36;42.08;;;16.55;;
52948;SDS011;38812;50.942;3.644;2022-12-16T16:20:20;32.70;;;15.07;;
52948;SDS011;38812;50.942;3.644;2022-12-16T16:23:04;31.83;;;13.98;;
52948;SDS011;38812;50.942;3.644;2022-12-16T16:25:48;36.92;;;13.93;;
52948;SDS011;38812;50.942;3.644;2022-12-16T16:28:32;29.42;;;13.98;;
52948;SDS011;38812;50.942;3.644;2022-12-16T16:31:17;34.50;;;14.05;;
52948;SDS011;38812;50.942;3.644;2022-12-16T16:34:01;38.00;;;13.32;;
52948;SDS011;38812;50.942;3.644;2022-12-16T16:36:46;36.08;;;14.73;;
52948;SDS011;38812;50.942;3.644;2022-12-16T16:39:34;33.65;;;14.77;;
52948;SDS011;38812;50.942;3.644;2022-12-16T16:42:18;26.50;;;12.30;;
52948;SDS011;38812;50.942;3.644;2022-12-16T16:45:02;31.23;;;12.80;;
52948;SDS011;38812;50.942;3.644;2022-12-16T16:47:46;33.50;;;14.07;;
52948;SDS011;38812;50.942;3.644;2022-12-16T16:50:30;29.00;;;14.80;;
52948;SDS011;38812;50.942;3.644;2022-12-16T16:53:14;30.13;;;13.73;;
52948;SDS011;38812;50.942;3.644;2022-12-16T16:55:58;28.42;;;13.40;;
52948;SDS011;38812;50.942;3.644;2022-12-16T16:58:43;40.80;;;17.58;;
52948;SDS011;38812;50.942;3.644;2022-12-16T17:01:27;38.25;;;16.20;;
52948;SDS011;38812;50.942;3.644;2022-12-16T17:04:11;35.20;;;15.55;;
52948;SDS011;38812;50.942;3.644;2022-12-16T17:06:55;36.50;;;14.57;;
52948;SDS011;38812;50.942;3.644;2022-12-16T17:09:39;31.73;;;13.38;;
52948;SDS011;38812;50.942;3.644;2022-12-16T17:12:25;27.45;;;12.50;;
52948;SDS011;38812;50.942;3.644;2022-12-16T17:15:15;32.28;;;12.38;;
52948;SDS011;38812;50.942;3.644;2022-12-16T17:20:48;28.40;;;11.57;;
52948;SDS011;38812;50.942;3.644;2022-12-16T17:23:32;24.45;;;11.07;;
52948;SDS011;38812;50.942;3.644;2022-12-16T17:26:16;25.75;;;11.20;;
52948;SDS011;38812;50.942;3.644;2022-12-16T17:29:01;34.40;;;12.27;;
52948;SDS011;38812;50.942;3.644;2022-12-16T17:31:44;41.15;;;14.80;;
52948;SDS011;38812;50.942;3.644;2022-12-16T17:34:28;31.85;;;12.85;;
52948;SDS011;38812;50.942;3.644;2022-12-16T17:37:12;31.67;;;13.18;;
52948;SDS011;38812;50.942;3.644;2022-12-16T17:39:56;40.95;;;12.88;;
52948;SDS011;38812;50.942;3.644;2022-12-16T17:42:40;32.47;;;13.57;;
52948;SDS011;38812;50.942;3.644;2022-12-16T17:45:24;35.75;;;12.68;;
52948;SDS011;38812;50.942;3.644;2022-12-16T17:48:08;31.40;;;12.40;;
52948;SDS011;38812;50.942;3.644;2022-12-16T17:50:52;26.02;;;12.25;;
52948;SDS011;38812;50.942;3.644;2022-12-16T17:53:36;30.52;;;13.93;;
52948;SDS011;38812;50.942;3.644;2022-12-16T17:56:20;30.17;;;14.60;;
52948;SDS011;38812;50.942;3.644;2022-12-16T17:59:04;34.72;;;14.40;;
52948;SDS011;38812;50.942;3.644;2022-12-16T18:01:48;38.17;;;14.48;;
52948;SDS011;38812;50.942;3.644;2022-12-16T18:04:32;47.30;;;16.88;;
52948;SDS011;38812;50.942;3.644;2022-12-16T18:07:15;49.47;;;18.30;;
52948;SDS011;38812;50.942;3.644;2022-12-16T18:09:59;47.97;;;21.35;;
52948;SDS011;38812;50.942;3.644;2022-12-16T18:12:43;40.85;;;20.80;;